Time;durP1;ratioP1;P1;durP2;ratioP2;P2;SDS_P1;SDS_P2;PMS_P1;PMS_P2;Temp;Humidity;BMP_temperature;BMP_pressure;BME280_temperature;BME280_humidity;BME280_pressure;Samples;Min_cycle;Max_cycle;Signal;HPM_P1;HPM_P2
2021/07/21 00:01:57;;;;;;;17.14;9.90;;;;;;;14.69;81.98;99743.34;2011169;77;20572;-76
2021/07/21 00:05:00;;;;;;;16.33;10.11;;;;;;;14.65;81.84;99752.09;2012843;80;20577;-76
2021/07/21 00:08:03;;;;;;;19.49;10.80;;;;;;;14.63;81.90;99750.41;2012381;80;20165;-76
2021/07/21 00:14:27;;;;;;;13.27;9.26;;;;;;;14.57;82.11;99745.28;2012736;80;20261;-76
2021/07/21 00:17:33;;;;;;;14.43;8.64;;;;;;;14.55;81.98;99747.94;2011228;78;23312;-76
2021/07/21 00:20:36;;;;;;;13.52;9.25;;;;;;;14.52;82.15;99748.81;2011708;80;20670;-76
2021/07/21 00:23:39;;;;;;;14.09;8.79;;;;;;;14.50;82.18;99747.97;2012680;80;20233;-77
2021/07/21 00:26:42;;;;;;;13.46;9.19;;;;;;;14.47;82.30;99747.16;2012800;80;20251;-76
2021/07/21 00:29:44;;;;;;;14.32;8.69;;;;;;;14.40;82.20;99748.97;2012499;80;20198;-77
2021/07/21 00:32:47;;;;;;;14.23;8.86;;;;;;;14.36;82.52;99749.00;2010895;77;23729;-76
2021/07/21 00:35:50;;;;;;;15.14;9.85;;;;;;;14.33;82.53;99739.47;2017741;80;20689;-75
2021/07/21 00:38:52;;;;;;;10.75;8.81;;;;;;;14.33;82.72;99742.09;2020665;80;20172;-76
2021/07/21 00:41:55;;;;;;;14.09;9.40;;;;;;;14.30;82.73;99743.88;2018039;80;20698;-77
2021/07/21 00:44:57;;;;;;;15.38;8.66;;;;;;;14.27;82.72;99749.16;2017461;80;20167;-76
2021/07/21 00:48:00;;;;;;;11.68;8.38;;;;;;;14.22;82.86;99736.16;2016517;77;21047;-77
2021/07/21 00:51:03;;;;;;;12.31;8.65;;;;;;;14.21;82.93;99737.06;2016975;80;20896;-76
2021/07/21 00:54:07;;;;;;;12.69;9.25;;;;;;;14.17;82.89;99740.56;2017168;80;20982;-77
2021/07/21 00:57:10;;;;;;;14.01;8.80;;;;;;;14.10;82.58;99738.94;2017827;80;20232;-76
2021/07/21 01:00:15;;;;;;;13.54;8.59;;;;;;;14.05;82.76;99732.91;2017037;80;20331;-76
2021/07/21 01:03:18;;;;;;;13.02;8.49;;;;;;;13.99;83.29;99733.84;2017193;77;23379;-76
2021/07/21 01:06:20;;;;;;;12.60;8.21;;;;;;;13.95;83.63;99733.91;2017232;80;20317;-75
2021/07/21 01:09:23;;;;;;;14.77;9.38;;;;;;;13.92;83.51;99742.63;2017628;80;20268;-77
2021/07/21 01:13:05;;;;;;;13.86;8.44;;;;;;;13.88;83.51;99744.44;2017020;80;20160;-76
2021/07/21 01:16:15;;;;;;;12.95;8.44;;;;;;;13.86;83.42;99743.59;2010514;80;20252;-76
2021/07/21 01:20:05;;;;;;;11.52;8.15;;;;;;;13.84;83.32;99741.88;2016952;77;20831;-75
2021/07/21 01:23:32;;;;;;;15.01;8.41;;;;;;;13.79;83.48;99738.44;2013503;80;20211;-76
2021/07/21 01:26:47;;;;;;;13.21;8.45;;;;;;;13.74;83.43;99729.81;2017205;80;20164;-76
2021/07/21 01:29:57;;;;;;;11.30;8.15;;;;;;;13.70;83.54;99738.56;2017166;80;20163;-76
2021/07/21 01:33:06;;;;;;;15.04;8.20;;;;;;;13.66;83.59;99731.66;2016632;77;20195;-76
2021/07/21 01:36:13;;;;;;;12.86;8.32;;;;;;;13.62;83.62;99736.03;2017779;80;20193;-76
2021/07/21 01:39:17;;;;;;;12.69;8.23;;;;;;;13.58;83.61;99735.19;2016928;80;20196;-76
2021/07/21 01:42:20;;;;;;;12.68;8.57;;;;;;;13.54;83.92;99736.13;2017334;80;20192;-76
2021/07/21 01:45:27;;;;;;;11.55;8.91;;;;;;;13.54;84.13;99743.09;2016417;77;20737;-76
2021/07/21 01:48:33;;;;;;;15.35;8.48;;;;;;;13.53;84.21;99733.53;2017368;80;20172;-76
2021/07/21 01:51:36;;;;;;;11.84;7.75;;;;;;;13.47;84.22;99736.22;2016649;80;20240;-76
2021/07/21 01:54:40;;;;;;;11.56;7.72;;;;;;;13.44;84.14;99737.09;2017325;80;20259;-76
2021/07/21 01:57:46;;;;;;;13.40;8.48;;;;;;;13.39;83.96;99738.03;2016628;80;20261;-77
2021/07/21 02:00:51;;;;;;;11.77;8.01;;;;;;;13.35;83.93;99744.16;2016383;78;21650;-76
2021/07/21 02:03:56;;;;;;;13.71;8.29;;;;;;;13.34;84.06;99745.91;2018550;80;20384;-75
2021/07/21 02:06:59;;;;;;;13.26;8.41;;;;;;;13.29;84.05;99748.56;2017811;80;20163;-76
2021/07/21 02:10:05;;;;;;;12.80;8.18;;;;;;;13.25;84.38;99751.19;2018418;80;20275;-76
2021/07/21 02:13:12;;;;;;;12.90;7.93;;;;;;;13.24;84.56;99752.06;2017858;80;20215;-76
2021/07/21 02:16:15;;;;;;;14.93;9.21;;;;;;;13.23;84.47;99753.81;2017818;77;21087;-76
2021/07/21 02:19:19;;;;;;;9.89;8.23;;;;;;;13.22;84.51;99752.09;2018024;80;20254;-76
2021/07/21 02:22:22;;;;;;;13.77;8.61;;;;;;;13.20;84.67;99747.78;2018351;80;20273;-76
2021/07/21 02:25:26;;;;;;;14.07;8.19;;;;;;;13.19;84.69;99752.13;2019094;80;20195;-77
2021/07/21 02:28:32;;;;;;;12.11;8.23;;;;;;;13.18;84.40;99750.41;2018826;80;20228;-77
2021/07/21 02:31:41;;;;;;;9.71;7.34;;;;;;;13.15;84.43;99741.72;2017806;77;22247;-77
2021/07/21 02:34:44;;;;;;;9.31;7.40;;;;;;;13.10;84.65;99744.34;2019172;80;20221;-76
2021/07/21 02:37:51;;;;;;;10.56;7.95;;;;;;;13.07;84.69;99741.75;2019150;80;20200;-77
2021/07/21 02:40:56;;;;;;;12.05;8.49;;;;;;;13.06;84.47;99737.44;2019432;80;20199;-77
2021/07/21 02:43:59;;;;;;;14.44;8.39;;;;;;;13.05;84.39;99735.69;2018949;80;20812;-76
2021/07/21 02:47:02;;;;;;;13.63;8.68;;;;;;;13.01;84.56;99734.88;2019967;77;24650;-77
2021/07/21 02:50:05;;;;;;;13.23;8.30;;;;;;;12.98;84.60;99740.13;2018974;80;20280;-76
2021/07/21 02:53:13;;;;;;;12.68;8.60;;;;;;;12.93;84.50;99736.69;2019192;80;20663;-77
2021/07/21 02:56:17;;;;;;;13.28;8.32;;;;;;;12.88;84.68;99730.63;2019000;80;20176;-77
2021/07/21 02:59:23;;;;;;;11.34;8.20;;;;;;;12.86;84.83;99737.59;2018977;80;20211;-76
2021/07/21 03:02:27;;;;;;;9.81;7.96;;;;;;;12.83;84.87;99726.34;2020339;77;32058;-77
2021/07/21 03:05:31;;;;;;;12.81;8.29;;;;;;;12.82;84.77;99733.31;2017965;80;20190;-76
2021/07/21 03:08:35;;;;;;;14.63;8.99;;;;;;;12.79;84.68;99724.66;2018922;80;20828;-76
2021/07/21 03:11:39;;;;;;;14.23;8.80;;;;;;;12.75;84.50;99723.81;2018034;80;20244;-76
2021/07/21 03:14:44;;;;;;;13.75;8.46;;;;;;;12.74;84.63;99729.88;2017731;80;20606;-78
2021/07/21 03:17:48;;;;;;;10.73;8.75;;;;;;;12.73;84.57;99735.09;2019903;78;29450;-78
2021/07/21 03:20:54;;;;;;;12.68;9.14;;;;;;;12.70;84.59;99733.38;2018222;80;20199;-77
2021/07/21 03:24:00;;;;;;;13.82;9.24;;;;;;;12.66;84.80;99740.38;2017966;80;20176;-77
2021/07/21 03:27:05;;;;;;;15.84;9.66;;;;;;;12.61;84.77;99739.53;2017974;80;20831;-77
2021/07/21 03:30:10;;;;;;;11.84;8.36;;;;;;;12.60;84.79;99742.16;2016876;80;20164;-77
2021/07/21 03:33:13;;;;;;;14.39;9.20;;;;;;;12.58;84.94;99744.78;2017920;77;20276;-76
2021/07/21 03:36:18;;;;;;;14.07;8.86;;;;;;;12.55;85.10;99739.56;2017246;80;20295;-76
2021/07/21 03:39:21;;;;;;;12.51;8.25;;;;;;;12.54;84.94;99743.03;2017295;80;20221;-77
2021/07/21 03:42:25;;;;;;;11.84;8.79;;;;;;;12.49;84.75;99752.63;2017858;80;20231;-76
2021/07/21 03:45:30;;;;;;;19.24;9.10;;;;;;;12.47;84.81;99754.41;2017243;77;21107;-76
2021/07/21 03:48:33;;;;;;;13.70;9.11;;;;;;;12.46;85.04;99755.28;2017981;80;20229;-77
2021/07/21 03:51:38;;;;;;;13.35;9.16;;;;;;;12.46;85.23;99751.81;2017755;80;20221;-77
2021/07/21 03:54:42;;;;;;;12.04;8.85;;;;;;;12.43;85.08;99763.09;2017815;80;20216;-77
2021/07/21 03:57:45;;;;;;;13.52;9.29;;;;;;;12.40;85.24;99763.13;2017707;80;20184;-76
2021/07/21 04:00:49;;;;;;;13.55;8.86;;;;;;;12.41;85.29;99772.66;2016949;77;21017;-77
2021/07/21 04:03:53;;;;;;;14.91;8.94;;;;;;;12.42;85.41;99766.59;2017951;80;20175;-77
2021/07/21 04:06:57;;;;;;;12.16;8.70;;;;;;;12.40;85.37;99768.34;2017952;80;20207;-77
2021/07/21 04:10:03;;;;;;;11.21;8.41;;;;;;;12.35;85.55;99773.53;2017790;80;20321;-77
2021/07/21 04:13:06;;;;;;;14.38;8.56;;;;;;;12.38;85.78;99780.47;2017938;80;21062;-78
2021/07/21 04:16:12;;;;;;;11.01;8.71;;;;;;;12.40;85.73;99776.16;2017817;77;20175;-78
2021/07/21 04:19:16;;;;;;;12.99;8.66;;;;;;;12.42;85.78;99773.53;2017958;80;20632;-76
2021/07/21 04:22:21;;;;;;;17.65;9.26;;;;;;;12.42;85.83;99765.72;2017580;80;20624;-76
2021/07/21 04:25:25;;;;;;;11.49;8.52;;;;;;;12.44;85.82;99770.03;2021632;80;20164;-76
2021/07/21 04:28:29;;;;;;;12.31;8.60;;;;;;;12.46;85.72;99773.50;2018355;80;20192;-77
2021/07/21 04:31:32;;;;;;;10.77;8.52;;;;;;;12.49;85.99;99775.22;2017323;77;22856;-78
2021/07/21 04:34:35;;;;;;;13.45;8.05;;;;;;;12.53;85.92;99780.38;2019141;80;20771;-78
2021/07/21 04:37:41;;;;;;;15.41;8.68;;;;;;;12.55;85.86;99780.38;2017958;80;20645;-77
2021/07/21 04:40:46;;;;;;;11.96;8.59;;;;;;;12.50;85.90;99787.38;2018072;80;20758;-78
2021/07/21 04:43:48;;;;;;;13.38;8.94;;;;;;;12.45;86.26;99790.00;2017957;80;20183;-76
2021/07/21 04:46:53;;;;;;;11.60;8.99;;;;;;;12.45;86.61;99786.53;2017594;77;21506;-77
2021/07/21 04:49:59;;;;;;;10.76;8.57;;;;;;;12.52;86.80;99793.44;2017064;80;20196;-78
2021/07/21 04:53:02;;;;;;;11.04;8.44;;;;;;;12.62;87.04;99795.97;2018118;80;20763;-76
2021/07/21 04:56:05;;;;;;;10.41;8.00;;;;;;;12.84;87.12;99801.03;2017091;80;20284;-76
2021/07/21 04:59:08;;;;;;;10.44;7.59;;;;;;;12.98;87.07;99801.81;2017823;80;20745;-76
2021/07/21 05:02:10;;;;;;;17.84;8.26;;;;;;;13.17;86.81;99803.41;2017043;78;25346;-76
2021/07/21 05:05:14;;;;;;;11.93;8.24;;;;;;;13.36;86.24;99813.69;2017764;80;20223;-75
2021/07/21 05:08:17;;;;;;;9.70;7.85;;;;;;;13.56;85.59;99819.59;2017606;80;20672;-77
2021/07/21 05:11:20;;;;;;;13.36;8.38;;;;;;;13.75;84.67;99820.28;2017487;80;20164;-76
2021/07/21 05:14:23;;;;;;;11.94;8.51;;;;;;;13.94;83.96;99815.72;2017918;80;20213;-76
2021/07/21 05:17:26;;;;;;;10.04;8.05;;;;;;;14.22;83.15;99817.13;2018372;77;22411;-77
2021/07/21 05:20:29;;;;;;;10.10;7.86;;;;;;;14.60;82.03;99828.88;2017192;80;20164;-76
2021/07/21 05:23:32;;;;;;;11.30;7.78;;;;;;;15.01;80.35;99834.34;2017710;80;20241;-76
2021/07/21 05:26:35;;;;;;;9.80;7.94;;;;;;;15.36;78.71;99838.16;2017528;80;20340;-76
2021/07/21 05:29:37;;;;;;;9.90;7.07;;;;;;;15.63;77.42;99839.50;2018279;80;20172;-76
2021/07/21 05:32:40;;;;;;;12.31;7.81;;;;;;;15.97;76.27;99837.94;2017569;77;20197;-75
2021/07/21 05:35:43;;;;;;;10.02;7.57;;;;;;;16.18;75.36;99835.81;2018936;80;20163;-79
2021/07/21 05:38:46;;;;;;;9.80;7.71;;;;;;;16.34;75.42;99837.25;2017033;80;20187;-76
2021/07/21 05:41:56;;;;;;;10.48;7.93;;;;;;;16.56;74.79;99840.28;2017312;80;20314;-76
2021/07/21 05:44:58;;;;;;;11.46;7.95;;;;;;;16.92;72.80;99841.25;2017431;80;20193;-76
2021/07/21 05:48:01;;;;;;;11.59;7.69;;;;;;;17.38;71.66;99833.09;2017051;77;22365;-76
2021/07/21 05:51:04;;;;;;;13.10;8.34;;;;;;;17.84;70.00;99842.47;2017420;80;20186;-76
2021/07/21 05:54:06;;;;;;;9.95;8.11;;;;;;;18.23;68.04;99842.28;2017392;80;20305;-76
2021/07/21 05:57:09;;;;;;;10.73;8.15;;;;;;;18.48;67.22;99835.38;2017174;80;20197;-76
2021/07/21 06:00:13;;;;;;;11.06;8.39;;;;;;;18.64;66.76;99836.69;2016830;80;20193;-76
2021/07/21 06:03:18;;;;;;;12.54;8.18;;;;;;;18.85;66.00;99832.56;2018645;78;21340;-76
2021/07/21 06:06:21;;;;;;;14.01;8.65;;;;;;;18.98;65.92;99839.16;2020127;80;20943;-76
2021/07/21 06:09:23;;;;;;;13.84;7.95;;;;;;;19.24;64.79;99830.44;2018991;80;20214;-77
2021/07/21 06:12:26;;;;;;;11.30;8.05;;;;;;;19.56;63.72;99839.91;2018990;80;20214;-77
2021/07/21 06:15:30;;;;;;;18.83;7.66;;;;;;;19.95;62.02;99836.81;2110027;69;21335;-76
2021/07/21 06:18:34;;;;;;;11.61;7.55;;;;;;;20.25;61.18;99845.38;2006727;80;20385;-77
2021/07/21 06:21:37;;;;;;;14.81;8.14;;;;;;;20.52;59.78;99840.91;2007188;80;20199;-76
2021/07/21 06:24:40;;;;;;;13.55;7.32;;;;;;;20.84;58.88;99846.72;2105713;69;20220;-77
2021/07/21 06:27:42;;;;;;;14.61;7.41;;;;;;;21.10;58.86;99851.81;2012199;80;20771;-76
2021/07/21 06:30:46;;;;;;;13.63;6.84;;;;;;;21.31;57.87;99850.97;2011675;78;29955;-77
2021/07/21 06:33:48;;;;;;;14.06;7.04;;;;;;;21.51;57.35;99846.66;2013023;80;20206;-76
2021/07/21 06:36:51;;;;;;;14.01;6.56;;;;;;;21.73;56.49;99857.22;2014357;80;20232;-77
2021/07/21 06:39:53;;;;;;;13.61;6.00;;;;;;;21.92;55.96;99861.63;2013828;80;20188;-76
2021/07/21 06:42:56;;;;;;;13.49;6.94;;;;;;;22.09;55.50;99858.28;2013834;80;20200;-76
2021/07/21 06:45:59;;;;;;;13.71;6.74;;;;;;;22.23;54.51;99861.16;2011813;77;21483;-77
2021/07/21 06:49:03;;;;;;;10.82;5.88;;;;;;;22.35;54.08;99870.34;2013592;80;20180;-76
2021/07/21 06:52:06;;;;;;;10.59;5.82;;;;;;;22.51;53.95;99868.72;2013460;80;20321;-77
2021/07/21 06:55:09;;;;;;;10.46;6.24;;;;;;;22.68;53.04;99870.59;2015278;80;20184;-78
2021/07/21 06:58:11;;;;;;;8.85;5.57;;;;;;;22.81;52.26;99877.06;2015454;80;20172;-77
2021/07/21 07:01:14;;;;;;;6.45;5.07;;;;;;;22.97;51.68;99876.34;2016029;77;20219;-77
2021/07/21 07:04:17;;;;;;;6.82;4.36;;;;;;;23.07;51.02;99870.53;2020294;80;20196;-77
2021/07/21 07:07:19;;;;;;;10.65;4.99;;;;;;;23.24;50.41;99879.47;2020044;80;20195;-78
2021/07/21 07:10:22;;;;;;;7.61;4.24;;;;;;;23.31;50.49;99878.22;2020236;80;20327;-77
2021/07/21 07:13:25;;;;;;;5.16;4.47;;;;;;;23.43;50.28;99877.63;2020176;80;20184;-77
2021/07/21 07:16:27;;;;;;;8.51;4.54;;;;;;;23.64;50.35;99886.34;2020360;77;54457;-77
2021/07/21 07:19:30;;;;;;;8.40;4.65;;;;;;;23.70;48.69;99886.03;2020377;80;20267;-78
2021/07/21 07:22:33;;;;;;;4.47;4.04;;;;;;;23.91;48.56;99890.25;2020648;80;20213;-78
2021/07/21 07:25:37;;;;;;;5.70;3.74;;;;;;;24.00;48.16;99891.56;2021242;80;20184;-78
2021/07/21 07:28:39;;;;;;;4.40;3.88;;;;;;;24.05;47.75;99885.06;2020156;80;20201;-77
2021/07/21 07:31:42;;;;;;;7.16;3.75;;;;;;;24.14;47.85;99882.91;2017204;78;22421;-78
2021/07/21 07:34:45;;;;;;;4.15;3.81;;;;;;;24.22;47.27;99886.84;2014915;80;20327;-78
2021/07/21 07:37:47;;;;;;;4.64;3.71;;;;;;;24.20;46.96;99887.88;2015039;80;20315;-78
2021/07/21 07:40:52;;;;;;;5.13;3.55;;;;;;;24.21;46.54;99885.13;2013799;80;20766;-78
2021/07/21 07:43:55;;;;;;;3.69;3.38;;;;;;;24.37;46.50;99885.22;2015990;80;20190;-77
2021/07/21 07:46:58;;;;;;;4.96;3.60;;;;;;;24.64;46.21;99893.50;2016447;78;22592;-78
2021/07/21 07:50:06;;;;;;;4.26;3.58;;;;;;;24.77;45.86;99888.38;2019230;80;20219;-78
2021/07/21 07:53:10;;;;;;;5.91;3.88;;;;;;;24.93;45.40;99881.28;2019684;80;20227;-75
2021/07/21 07:56:14;;;;;;;4.74;3.71;;;;;;;24.97;45.34;99881.03;2018942;80;20184;-78
2021/07/21 07:59:17;;;;;;;4.80;3.36;;;;;;;24.96;45.31;99886.44;2019565;80;20199;-78
2021/07/21 08:02:19;;;;;;;9.81;3.91;;;;;;;25.01;45.69;99881.75;2018933;78;28613;-79
2021/07/21 08:05:23;;;;;;;5.51;3.92;;;;;;;25.21;45.92;99884.13;2014329;80;20214;-79
2021/07/21 08:08:26;;;;;;;8.41;4.13;;;;;;;25.35;44.81;99874.53;2014156;80;20192;-78
2021/07/21 08:11:29;;;;;;;4.81;4.32;;;;;;;25.29;44.15;99879.22;2013988;80;20184;-78
2021/07/21 08:14:31;;;;;;;8.27;4.26;;;;;;;25.35;44.44;99877.19;2014271;80;20798;-78
2021/07/21 08:17:34;;;;;;;5.53;4.04;;;;;;;25.50;44.20;99863.00;2016513;80;22941;-76
2021/07/21 08:20:37;;;;;;;8.96;5.49;;;;;;;25.63;44.10;99879.09;2018837;80;20205;-77
2021/07/21 08:23:39;;;;;;;6.86;4.68;;;;;;;25.71;43.74;99864.44;2017603;80;20160;-74
2021/07/21 08:26:43;;;;;;;6.24;4.16;;;;;;;25.92;43.44;99864.94;2017994;80;20195;-75
2021/07/21 08:30:03;;;;;;;6.45;4.07;;;;;;;26.00;42.83;99860.00;2016664;80;20746;-75
2021/07/21 08:33:06;;;;;;;9.43;4.36;;;;;;;26.16;42.85;99865.25;2011568;80;20498;-72
2021/07/21 08:36:09;;;;;;;6.75;4.36;;;;;;;26.28;42.10;99867.19;2012715;80;20234;-75
2021/07/21 08:39:12;;;;;;;5.76;3.71;;;;;;;26.36;41.91;99872.06;2012211;80;20285;-74
2021/07/21 08:42:15;;;;;;;7.16;3.90;;;;;;;26.41;41.81;99860.19;2011905;80;21081;-75
2021/07/21 08:45:19;;;;;;;5.72;3.54;;;;;;;26.42;41.56;99861.03;2012007;80;20180;-74
2021/07/21 08:48:21;;;;;;;4.71;3.71;;;;;;;26.49;41.64;99870.34;2020171;78;20805;-76
2021/07/21 08:51:24;;;;;;;6.11;3.83;;;;;;;26.61;41.28;99872.25;2018416;80;20225;-76
2021/07/21 08:54:28;;;;;;;5.53;3.25;;;;;;;26.62;41.72;99868.66;2017248;80;20223;-75
2021/07/21 08:57:32;;;;;;;6.36;4.07;;;;;;;26.76;41.48;99873.97;2017319;80;20197;-74
2021/07/21 09:00:35;;;;;;;4.55;3.51;;;;;;;26.77;41.01;99867.69;2014914;78;26854;-71
2021/07/21 09:03:38;;;;;;;4.35;3.80;;;;;;;26.78;41.34;99864.06;2011961;80;20226;-75
2021/07/21 09:06:42;;;;;;;3.84;3.50;;;;;;;26.80;40.80;99870.16;2012073;80;20319;-71
2021/07/21 09:09:45;;;;;;;4.19;3.34;;;;;;;26.81;40.67;99871.00;2011878;80;20198;-71
2021/07/21 09:12:50;;;;;;;4.26;3.53;;;;;;;26.86;40.50;99868.88;2012334;80;20206;-72
2021/07/21 09:15:53;;;;;;;3.40;3.01;;;;;;;26.91;40.07;99868.59;2012797;77;20976;-73
2021/07/21 09:18:58;;;;;;;5.20;3.61;;;;;;;26.94;40.46;99871.94;2016863;80;20377;-72
2021/07/21 09:22:27;;;;;;;4.19;3.25;;;;;;;26.99;39.72;99876.97;2017362;80;20209;-76
2021/07/21 09:25:32;;;;;;;3.66;3.36;;;;;;;27.04;39.17;99875.72;2020081;80;20240;-74
2021/07/21 09:28:40;;;;;;;4.31;3.39;;;;;;;27.26;39.89;99874.31;2016837;80;20227;-73
2021/07/21 09:31:50;;;;;;;5.34;3.33;;;;;;;27.34;38.96;99886.22;2015222;77;20213;-73
2021/07/21 09:34:54;;;;;;;3.53;3.22;;;;;;;27.36;38.88;99884.31;2017220;80;20321;-73
2021/07/21 09:37:58;;;;;;;3.91;3.41;;;;;;;27.43;39.37;99878.56;2017835;80;20191;-73
2021/07/21 09:41:04;;;;;;;5.10;3.71;;;;;;;27.50;39.13;99879.88;2017242;80;20194;-74
2021/07/21 09:44:06;;;;;;;4.29;3.51;;;;;;;27.63;38.61;99868.28;2018181;80;20237;-73
2021/07/21 09:47:17;;;;;;;7.50;3.91;;;;;;;27.76;38.25;99871.00;2012983;77;21020;-73
2021/07/21 09:50:25;;;;;;;5.66;3.55;;;;;;;27.83;38.42;99874.09;2012893;80;20864;-74
2021/07/21 09:53:41;;;;;;;4.88;3.66;;;;;;;27.84;37.23;99874.03;2012816;80;20757;-73
2021/07/21 09:56:46;;;;;;;5.70;3.67;;;;;;;27.90;37.61;99876.25;2012679;80;20586;-75
2021/07/21 09:59:48;;;;;;;4.61;4.18;;;;;;;28.00;37.71;99865.78;2012036;80;20200;-73
2021/07/21 10:03:15;;;;;;;4.51;3.79;;;;;;;27.99;37.39;99866.75;2015866;77;20359;-72
2021/07/21 10:06:18;;;;;;;4.00;3.67;;;;;;;27.98;37.70;99876.56;2017693;80;20283;-73
2021/07/21 10:09:24;;;;;;;5.46;3.95;;;;;;;28.03;36.90;99870.09;2017605;80;20204;-73
2021/07/21 10:12:27;;;;;;;6.29;4.18;;;;;;;28.08;36.83;99876.81;2017398;80;20179;-73
2021/07/21 10:15:29;;;;;;;4.80;3.90;;;;;;;28.16;37.11;99873.59;2012360;77;22266;-72
2021/07/21 10:18:32;;;;;;;5.09;3.97;;;;;;;28.21;36.74;99863.47;2016912;80;20183;-72
2021/07/21 10:21:36;;;;;;;4.84;3.39;;;;;;;28.29;36.97;99864.66;2017322;80;20959;-72
2021/07/21 10:24:40;;;;;;;5.53;3.67;;;;;;;28.43;36.60;99868.19;2016671;80;20187;-73
2021/07/21 10:27:43;;;;;;;4.54;3.99;;;;;;;28.49;36.30;99867.75;2017514;80;20311;-72
2021/07/21 10:30:46;;;;;;;7.30;4.09;;;;;;;28.25;34.52;99860.50;2015441;77;21157;-73
2021/07/21 10:33:49;;;;;;;5.32;3.70;;;;;;;28.35;36.42;99865.19;2012260;80;20173;-72
2021/07/21 10:36:53;;;;;;;7.99;4.21;;;;;;;28.43;36.02;99865.53;2012629;80;20226;-71
2021/07/21 10:39:58;;;;;;;5.69;4.16;;;;;;;28.53;35.49;99869.22;2011815;80;20176;-71
2021/07/21 10:43:02;;;;;;;4.69;4.04;;;;;;;28.49;34.86;99862.41;2011966;80;20176;-73
2021/07/21 10:46:34;;;;;;;6.01;4.11;;;;;;;28.54;35.72;99857.56;2011137;77;22146;-72
2021/07/21 10:49:44;;;;;;;5.91;4.53;;;;;;;28.75;35.48;99861.41;2011838;80;20196;-72
2021/07/21 10:52:57;;;;;;;6.55;4.00;;;;;;;28.79;35.57;99862.03;2012076;80;20214;-72
2021/07/21 10:59:47;;;;;;;4.88;3.94;;;;;;;28.86;34.54;99853.47;2012193;80;20299;-72
2021/07/21 11:02:52;;;;;;;6.24;3.97;;;;;;;28.92;35.32;99854.88;2013649;78;32747;-73
2021/07/21 11:06:02;;;;;;;4.69;4.29;;;;;;;28.95;34.05;99853.78;2011557;80;20168;-72
2021/07/21 11:09:26;;;;;;;6.88;4.05;;;;;;;29.01;34.89;99854.19;2011872;80;20153;-71
2021/07/21 11:12:33;;;;;;;4.64;4.24;;;;;;;29.01;35.17;99856.88;2011420;80;20180;-72
2021/07/21 11:15:44;;;;;;;4.15;3.85;;;;;;;28.95;34.26;99841.28;2010629;77;20748;-72
2021/07/21 11:18:48;;;;;;;4.34;3.90;;;;;;;29.00;34.90;99846.28;2011703;80;20168;-71
2021/07/21 11:21:56;;;;;;;4.45;4.06;;;;;;;29.00;34.81;99849.81;2011008;80;20172;-72
2021/07/21 11:25:17;;;;;;;4.41;4.01;;;;;;;29.02;34.32;99847.88;2011158;80;20232;-72
2021/07/21 11:28:27;;;;;;;4.70;4.36;;;;;;;29.09;34.42;99834.91;2009989;80;20184;-72
2021/07/21 11:31:56;;;;;;;5.66;4.28;;;;;;;29.27;34.14;99832.69;2011583;77;21592;-72
2021/07/21 11:34:59;;;;;;;6.97;4.21;;;;;;;29.25;33.71;99830.09;2014589;80;20285;-72
2021/07/21 11:38:01;;;;;;;6.90;4.01;;;;;;;29.26;34.50;99829.13;2014506;80;20719;-73
2021/07/21 11:41:04;;;;;;;8.48;4.41;;;;;;;29.19;34.32;99820.72;2014569;80;20201;-72
2021/07/21 11:44:07;;;;;;;4.76;3.66;;;;;;;29.12;34.41;99821.31;2014929;80;20234;-72
2021/07/21 11:47:13;;;;;;;5.69;3.80;;;;;;;29.25;34.62;99823.91;2013961;78;20213;-72
2021/07/21 11:50:31;;;;;;;5.93;4.76;;;;;;;29.29;35.04;99820.91;2016019;80;20320;-72
2021/07/21 11:53:34;;;;;;;8.40;4.63;;;;;;;29.15;33.31;99815.72;2017001;80;20700;-73
2021/07/21 11:56:37;;;;;;;4.53;3.91;;;;;;;29.17;34.28;99811.13;2016716;80;20187;-71
2021/07/21 11:59:42;;;;;;;6.00;3.58;;;;;;;29.14;33.27;99806.00;2016771;80;20817;-72
2021/07/21 12:02:45;;;;;;;6.09;4.15;;;;;;;28.98;34.84;99808.97;2011168;78;22441;-73
2021/07/21 12:05:55;;;;;;;5.72;3.84;;;;;;;29.19;34.33;99798.47;2011241;80;20201;-72
2021/07/21 12:08:58;;;;;;;4.04;3.71;;;;;;;29.28;34.36;99799.63;2011580;80;20180;-72
2021/07/21 12:12:03;;;;;;;4.63;3.92;;;;;;;29.31;34.72;99799.41;2011981;80;20704;-72
2021/07/21 12:15:08;;;;;;;6.53;3.78;;;;;;;29.44;34.17;99802.81;2011930;80;20184;-72
2021/07/21 12:18:13;;;;;;;7.96;4.03;;;;;;;29.47;34.55;99797.28;2019263;77;33566;-71
2021/07/21 12:21:16;;;;;;;7.86;4.24;;;;;;;29.22;34.16;99800.91;2016663;80;20229;-72
2021/07/21 12:24:35;;;;;;;4.01;3.71;;;;;;;28.68;33.74;99795.97;2017202;80;20195;-72
2021/07/21 12:27:43;;;;;;;4.55;3.86;;;;;;;28.25;36.63;99792.84;2016391;80;20172;-72
2021/07/21 12:30:47;;;;;;;4.41;4.11;;;;;;;27.90;36.22;99803.34;2014707;78;32540;-72
2021/07/21 12:33:50;;;;;;;6.28;4.05;;;;;;;27.63;35.90;99793.56;2012111;80;20184;-73
2021/07/21 12:36:53;;;;;;;4.65;4.19;;;;;;;27.74;35.44;99792.84;2011003;80;20289;-72
2021/07/21 12:39:58;;;;;;;4.40;4.07;;;;;;;27.95;35.92;99793.19;2012405;80;20168;-73
2021/07/21 12:43:02;;;;;;;4.07;3.78;;;;;;;28.08;34.93;99794.03;2011787;80;20312;-72
2021/07/21 12:46:16;;;;;;;3.84;3.46;;;;;;;28.11;35.42;99799.16;2013157;79;24672;-72
2021/07/21 12:49:19;;;;;;;7.53;3.70;;;;;;;28.11;35.57;99795.63;2017163;80;20697;-72
2021/07/21 12:52:27;;;;;;;9.34;3.91;;;;;;;27.91;34.97;99794.38;2016714;80;20168;-72
2021/07/21 12:55:34;;;;;;;5.64;3.85;;;;;;;27.85;35.39;99792.97;2016966;80;20664;-72
2021/07/21 12:58:36;;;;;;;6.09;3.45;;;;;;;28.22;36.52;99790.41;2017515;80;20191;-72
2021/07/21 13:01:39;;;;;;;6.47;3.53;;;;;;;28.54;35.37;99790.78;2012738;78;20490;-72
2021/07/21 13:04:43;;;;;;;6.43;4.09;;;;;;;28.71;34.72;99790.41;2011490;80;20668;-72
2021/07/21 13:07:55;;;;;;;4.36;3.41;;;;;;;28.78;33.75;99794.34;2011265;80;20156;-72
2021/07/21 13:11:12;;;;;;;3.94;3.53;;;;;;;28.75;33.06;99791.91;2013919;80;20237;-73
2021/07/21 13:14:14;;;;;;;4.93;3.50;;;;;;;28.66;34.21;99786.38;2011632;80;20222;-73
2021/07/21 13:17:22;;;;;;;4.25;3.49;;;;;;;28.93;35.26;99781.72;2014291;78;21908;-72
2021/07/21 13:20:30;;;;;;;6.46;3.79;;;;;;;28.95;33.76;99787.81;2016716;80;20167;-72
2021/07/21 13:23:33;;;;;;;5.43;3.70;;;;;;;28.91;33.66;99780.97;2015675;80;20225;-72
2021/07/21 13:26:37;;;;;;;7.07;3.81;;;;;;;28.68;33.14;99779.09;2016711;80;20677;-76
2021/07/21 13:29:41;;;;;;;5.65;3.69;;;;;;;28.54;34.72;99782.75;2016535;80;20219;-72
2021/07/21 13:32:43;;;;;;;4.11;3.56;;;;;;;28.38;34.88;99777.69;2011035;78;20288;-72
2021/07/21 13:36:09;;;;;;;3.53;3.22;;;;;;;28.41;33.84;99787.31;2011435;80;20164;-72
2021/07/21 13:39:12;;;;;;;4.63;3.49;;;;;;;28.54;34.86;99793.44;2011626;80;20706;-72
2021/07/21 13:42:19;;;;;;;5.78;3.44;;;;;;;28.58;34.63;99786.94;2011551;80;20176;-72
2021/07/21 13:45:27;;;;;;;4.46;3.31;;;;;;;28.74;33.96;99792.03;2011257;78;22605;-73
2021/07/21 13:48:30;;;;;;;;;;;;;;;28.92;34.60;99785.34;2016580;80;20283;-72
2021/07/21 13:51:46;;;;;;;4.22;3.33;;;;;;;29.06;34.19;99797.69;2016704;80;20071;-71
2021/07/21 13:54:49;;;;;;;3.36;3.06;;;;;;;29.16;35.26;99785.34;2016299;80;20570;-71
2021/07/21 13:57:51;;;;;;;4.68;4.03;;;;;;;29.14;33.51;99780.09;2016500;80;21283;-71
2021/07/21 14:00:54;;;;;;;3.63;3.33;;;;;;;29.13;33.81;99789.09;2013736;77;23021;-71
2021/07/21 14:03:59;;;;;;;3.89;3.59;;;;;;;29.19;33.82;99787.78;2011016;80;20230;-71
2021/07/21 14:07:03;;;;;;;3.97;3.56;;;;;;;29.37;34.31;99785.53;2011296;80;20301;-71
2021/07/21 14:10:06;;;;;;;3.49;3.21;;;;;;;29.51;33.55;99788.06;2013857;80;20218;-71
2021/07/21 14:13:09;;;;;;;4.01;3.60;;;;;;;29.50;33.69;99788.19;2011226;80;20245;-71
2021/07/21 14:16:12;;;;;;;3.99;2.90;;;;;;;29.46;33.29;99782.22;2011867;78;21625;-71
2021/07/21 14:19:16;;;;;;;4.74;3.30;;;;;;;29.56;34.10;99775.16;2019139;80;20168;-71
2021/07/21 14:22:18;;;;;;;7.21;3.21;;;;;;;29.65;33.79;99776.31;2017076;80;20213;-70
2021/07/21 14:25:21;;;;;;;7.31;3.47;;;;;;;29.62;32.53;99779.19;2016891;80;20757;-71
2021/07/21 14:28:42;;;;;;;4.97;2.85;;;;;;;29.62;33.12;99766.66;2017288;80;20600;-71
2021/07/21 14:31:45;;;;;;;10.07;3.26;;;;;;;29.74;33.53;99772.91;2017958;80;25915;-71
2021/07/21 14:34:48;;;;;;;3.10;2.81;;;;;;;29.78;32.82;99769.84;2017360;80;20164;-71